Time;durP1;ratioP1;P1;durP2;ratioP2;P2;SDS_P1;SDS_P2;PMS_P1;PMS_P2;Temp;Humidity;BMP_temperature;BMP_pressure;BME280_temperature;BME280_humidity;BME280_pressure;Samples;Min_cycle;Max_cycle;Signal;HPM_P1;HPM_P2
2021/03/13 00:01:31;;;;;;;18.85;13.00;;;;;;;-1.16;82.18;95598.22;5076331;28;20032;-90
2021/03/13 00:03:57;;;;;;;23.40;13.82;;;;;;;-1.16;82.18;95598.22;5076192;28;20067;-90
2021/03/13 00:06:22;;;;;;;21.88;12.43;;;;;;;-1.38;81.94;95576.38;5076181;28;20070;-90
2021/03/13 00:08:48;;;;;;;22.90;14.00;;;;;;;-0.72;83.61;95642.59;5076366;28;20074;-90
2021/03/13 00:11:13;;;;;;;21.30;13.43;;;;;;;-0.99;82.40;95607.91;5076503;28;20135;-90
2021/03/13 00:13:39;;;;;;;19.42;12.48;;;;;;;-1.02;82.08;95584.69;5076198;28;20016;-90
2021/03/13 00:16:06;;;;;;;19.48;12.10;;;;;;;-0.43;82.36;95664.31;5076224;28;20027;-90
2021/03/13 00:18:33;;;;;;;22.83;13.13;;;;;;;-0.71;82.20;95636.13;5076208;28;20020;-90
2021/03/13 00:20:59;;;;;;;28.65;15.15;;;;;;;-0.77;81.79;95626.31;5076194;28;20036;-90
2021/03/13 00:23:25;;;;;;;24.85;15.57;;;;;;;-1.00;81.96;95603.72;5076102;28;20074;-90
2021/03/13 00:25:51;;;;;;;25.42;15.07;;;;;;;-0.86;81.94;95635.53;5077067;28;20055;-90
2021/03/13 00:28:17;;;;;;;28.42;14.52;;;;;;;-1.26;82.27;95572.44;5076031;28;20342;-89
2021/03/13 00:30:45;;;;;;;21.50;13.85;;;;;;;-0.97;82.79;95604.81;5076966;28;20154;-90
2021/03/13 00:33:16;;;;;;;23.52;13.68;;;;;;;-1.07;83.04;95601.88;5076016;28;20425;-90
2021/03/13 00:35:45;;;;;;;28.50;16.38;;;;;;;-0.68;82.92;95653.25;5076126;28;20050;-90
2021/03/13 00:38:11;;;;;;;26.25;15.55;;;;;;;-0.73;82.49;95654.44;5075915;28;20116;-90
2021/03/13 00:40:39;;;;;;;30.33;19.80;;;;;;;-0.96;83.74;95612.44;5092594;28;20113;-90
2021/03/13 00:43:06;;;;;;;31.48;19.92;;;;;;;-1.15;83.29;95573.06;5076072;28;20070;-90
2021/03/13 00:45:32;;;;;;;34.20;21.58;;;;;;;-0.51;83.94;95651.50;5075828;28;20032;-90
2021/03/13 00:47:59;;;;;;;34.80;22.98;;;;;;;-0.91;83.94;95584.56;5077008;28;20103;-90
2021/03/13 00:50:26;;;;;;;31.77;21.10;;;;;;;-0.44;84.21;95654.81;5075866;28;20032;-91
2021/03/13 00:52:52;;;;;;;33.08;21.65;;;;;;;-0.81;83.45;95597.00;5075453;28;20059;-90
2021/03/13 00:55:18;;;;;;;33.53;20.70;;;;;;;-0.78;83.61;95588.22;5075740;28;20035;-90
2021/03/13 00:57:44;;;;;;;31.92;21.25;;;;;;;-0.74;83.78;95564.91;5075657;28;20471;-91
2021/03/13 01:00:12;;;;;;;31.85;21.52;;;;;;;-0.74;83.78;95564.91;5076364;28;20416;-90
2021/03/13 01:02:38;;;;;;;33.88;21.88;;;;;;;-0.47;82.43;95609.53;5079619;28;20324;-90
2021/03/13 01:05:05;;;;;;;37.55;22.58;;;;;;;-0.77;82.11;95560.38;5079423;28;20032;-90
2021/03/13 01:07:32;;;;;;;36.10;23.88;;;;;;;-0.74;82.72;95588.16;5080616;28;20035;-90
2021/03/13 01:09:58;;;;;;;35.42;22.80;;;;;;;-0.43;82.17;95636.88;5080440;28;20051;-90
2021/03/13 01:12:24;;;;;;;33.92;22.65;;;;;;;-0.43;82.17;95636.88;5079402;28;20044;-90
2021/03/13 01:14:49;;;;;;;36.50;22.27;;;;;;;-0.87;83.48;95575.34;5096420;28;20012;-90
2021/03/13 01:17:16;;;;;;;35.38;22.40;;;;;;;-0.84;82.41;95587.91;5079270;28;20031;-89
2021/03/13 01:19:42;;;;;;;35.00;21.58;;;;;;;-1.00;83.77;95557.66;5071999;28;20031;-89
2021/03/13 01:22:08;;;;;;;35.03;22.42;;;;;;;-1.19;83.08;95546.44;5059449;28;20391;-89
2021/03/13 01:24:34;;;;;;;32.40;21.30;;;;;;;-0.87;83.91;95571.94;5059169;28;20043;-90
2021/03/13 01:26:59;;;;;;;32.10;20.77;;;;;;;-0.78;83.47;95576.78;5059366;28;20025;-89
2021/03/13 01:29:25;;;;;;;31.83;19.92;;;;;;;-0.84;83.12;95547.16;5059299;28;20025;-90
2021/03/13 01:31:50;;;;;;;26.90;18.08;;;;;;;-0.88;83.20;95549.09;5059280;28;20067;-90
2021/03/13 01:34:16;;;;;;;28.02;17.17;;;;;;;-0.28;83.35;95614.19;5066307;28;20305;-90
2021/03/13 01:36:42;;;;;;;25.33;16.73;;;;;;;-0.28;83.35;95614.19;5079103;28;20024;-89
2021/03/13 01:39:08;;;;;;;25.23;17.30;;;;;;;-0.28;83.35;95614.19;5080372;28;20300;-90
2021/03/13 01:41:34;;;;;;;25.23;16.35;;;;;;;-0.83;82.47;95557.41;5078991;28;20029;-89
2021/03/13 01:43:59;;;;;;;25.38;16.30;;;;;;;-0.83;82.75;95572.66;5078578;28;20029;-90
2021/03/13 01:46:25;;;;;;;25.95;16.77;;;;;;;-1.06;82.32;95552.00;5078792;28;20032;-90
2021/03/13 01:48:52;;;;;;;22.73;15.55;;;;;;;-0.59;82.42;95616.13;5079711;28;20024;-90
2021/03/13 01:51:18;;;;;;;21.67;14.35;;;;;;;-0.39;82.96;95619.66;5078626;28;20056;-90
2021/03/13 01:53:49;;;;;;;21.70;13.68;;;;;;;-0.63;83.04;95592.19;5078553;28;20052;-89
2021/03/13 01:56:16;;;;;;;18.48;13.25;;;;;;;-0.47;81.96;95620.94;5075401;28;20024;-90
2021/03/13 01:58:42;;;;;;;20.23;13.30;;;;;;;-0.86;82.93;95576.88;5078609;28;20083;-91
2021/03/13 02:01:08;;;;;;;19.58;13.20;;;;;;;-1.04;82.77;95539.03;5078601;28;20028;-91
2021/03/13 02:03:35;;;;;;;18.20;12.73;;;;;;;-1.04;82.77;95539.03;5078549;28;20060;-90
2021/03/13 02:06:00;;;;;;;20.25;13.20;;;;;;;-1.06;82.50;95568.75;5078491;28;20377;-90
2021/03/13 02:08:44;;;;;;;18.85;12.07;;;;;;;-0.58;82.48;95617.66;5078437;28;20031;-90
2021/03/13 02:11:12;;;;;;;17.17;11.88;;;;;;;-0.58;82.48;95617.66;5078336;28;20111;-90
2021/03/13 02:13:49;;;;;;;17.83;10.65;;;;;;;-1.04;82.49;95579.03;5077229;28;20321;-90
2021/03/13 02:16:30;;;;;;;16.70;11.35;;;;;;;-0.90;81.97;95613.50;5079351;28;20320;-90
2021/03/13 02:19:39;;;;;;;18.52;11.13;;;;;;;-1.25;82.58;95563.28;5079175;28;20407;-90
2021/03/13 02:22:12;;;;;;;16.30;10.45;;;;;;;-0.74;82.73;95625.50;5094976;28;20386;-90
2021/03/13 02:25:08;;;;;;;15.45;10.88;;;;;;;-0.76;82.75;95627.81;5077975;28;20086;-90
2021/03/13 02:27:42;;;;;;;15.98;11.07;;;;;;;-0.70;83.78;95626.19;5078050;28;20111;-90
2021/03/13 02:30:14;;;;;;;16.95;11.23;;;;;;;-0.92;82.60;95601.72;5078107;28;20036;-90
2021/03/13 02:32:46;;;;;;;18.48;12.15;;;;;;;-0.92;82.60;95601.72;5077785;28;20320;-90
2021/03/13 02:35:40;;;;;;;17.08;11.93;;;;;;;-1.21;82.75;95572.00;5077927;28;20035;-90
2021/03/13 02:38:14;;;;;;;19.88;12.43;;;;;;;-1.07;84.42;95567.22;5077903;28;20024;-91
2021/03/13 02:40:42;;;;;;;21.90;14.15;;;;;;;-1.27;83.67;95541.63;5078923;28;20036;-90
2021/03/13 02:43:09;;;;;;;19.23;12.50;;;;;;;-1.27;83.67;95541.63;5077723;28;20038;-90
2021/03/13 02:45:38;;;;;;;22.77;14.30;;;;;;;-1.64;83.32;95489.91;5077900;28;20036;-90
2021/03/13 02:48:10;;;;;;;27.13;16.95;;;;;;;-0.88;83.03;95584.53;5077678;28;20443;-90
2021/03/13 02:50:39;;;;;;;25.98;16.85;;;;;;;-1.15;83.59;95557.06;5077496;28;20040;-90
2021/03/13 02:53:08;;;;;;;30.83;19.02;;;;;;;-0.70;83.46;95608.28;5079136;28;20016;-90
2021/03/13 02:55:34;;;;;;;30.02;19.90;;;;;;;-0.66;84.21;95611.66;5077499;28;20029;-90
2021/03/13 02:58:02;;;;;;;26.38;18.83;;;;;;;-1.08;83.57;95539.06;5077594;28;20024;-90
2021/03/13 03:00:34;;;;;;;34.15;21.42;;;;;;;-0.88;83.71;95571.19;5077413;28;20025;-90
2021/03/13 03:03:01;;;;;;;26.77;18.75;;;;;;;-1.39;83.46;95490.34;5077083;28;20032;-90
2021/03/13 03:05:27;;;;;;;24.05;15.77;;;;;;;-0.91;83.79;95563.22;5077403;28;20320;-90
2021/03/13 03:07:55;;;;;;;26.80;18.65;;;;;;;-0.80;82.54;95582.50;5077318;28;20028;-90
2021/03/13 03:10:25;;;;;;;26.30;15.65;;;;;;;-0.80;82.54;95582.50;5077323;28;20336;-90
2021/03/13 03:12:52;;;;;;;24.30;16.00;;;;;;;-0.80;82.54;95582.50;5093648;28;20024;-89
2021/03/13 03:15:22;;;;;;;19.08;13.85;;;;;;;-0.63;83.56;95594.13;5077098;28;20064;-89
2021/03/13 03:17:49;;;;;;;22.25;14.30;;;;;;;-0.63;83.56;95594.13;5078137;28;20024;-89
2021/03/13 03:20:14;;;;;;;21.55;13.90;;;;;;;-0.70;82.92;95605.59;5077275;28;20039;-89
2021/03/13 03:22:40;;;;;;;20.00;13.55;;;;;;;-1.04;82.79;95551.59;5077999;28;20024;-89
2021/03/13 03:25:08;;;;;;;23.83;14.95;;;;;;;-1.13;83.78;95533.44;5076321;28;20367;-89
2021/03/13 03:27:34;;;;;;;22.27;14.70;;;;;;;-1.06;83.33;95530.69;5076087;28;20032;-89
2021/03/13 03:30:01;;;;;;;21.38;13.63;;;;;;;-0.50;83.87;95594.31;5076585;28;20029;-89
2021/03/13 03:32:27;;;;;;;20.77;13.77;;;;;;;-0.50;83.87;95594.31;5076723;28;20055;-89
2021/03/13 03:34:52;;;;;;;19.60;14.05;;;;;;;-1.16;100.00;95531.59;5076673;28;20416;-89
2021/03/13 03:37:18;;;;;;;22.10;13.77;;;;;;;-1.24;81.42;95530.16;5076632;28;20119;-89
2021/03/13 03:39:43;;;;;;;18.30;12.57;;;;;;;-1.24;81.42;95530.16;5076652;28;20024;-89
2021/03/13 03:42:10;;;;;;;19.85;13.60;;;;;;;-1.24;81.42;95530.16;5076614;28;20043;-90
2021/03/13 03:44:42;;;;;;;19.33;12.55;;;;;;;-1.53;81.53;95527.84;5076430;28;20020;-90
2021/03/13 03:47:10;;;;;;;19.15;13.32;;;;;;;-1.53;81.53;95527.84;5076526;28;20035;-90
2021/03/13 03:49:38;;;;;;;19.23;12.80;;;;;;;-1.03;82.12;95603.75;5076536;28;20039;-90
2021/03/13 03:52:05;;;;;;;21.38;12.27;;;;;;;-1.03;82.12;95603.75;5076391;28;20145;-90
2021/03/13 03:54:35;;;;;;;20.27;12.40;;;;;;;-1.55;82.66;95529.38;5076387;28;20017;-90
2021/03/13 03:57:01;;;;;;;17.15;12.43;;;;;;;-1.67;82.71;95523.41;5077502;28;20033;-91
2021/03/13 03:59:27;;;;;;;18.48;12.45;;;;;;;-1.45;83.25;95539.16;5076201;28;20374;-90
2021/03/13 04:01:53;;;;;;;20.85;12.75;;;;;;;-1.06;84.91;95586.66;5077398;28;20036;-90
2021/03/13 04:04:23;;;;;;;20.25;12.80;;;;;;;-1.64;82.73;95505.91;5093226;28;20040;-90
2021/03/13 04:06:50;;;;;;;20.67;14.02;;;;;;;-1.78;84.34;95485.50;5076267;28;20028;-90
2021/03/13 04:09:28;;;;;;;21.58;14.90;;;;;;;-1.41;84.62;95521.22;5076297;28;20028;-90
2021/03/13 04:11:56;;;;;;;22.50;15.23;;;;;;;-1.36;83.81;95529.53;5060536;28;20116;-90
2021/03/13 04:14:22;;;;;;;21.83;14.60;;;;;;;-1.64;82.93;95468.59;5056290;28;20025;-90
2021/03/13 04:16:49;;;;;;;25.95;16.17;;;;;;;-1.43;81.44;95510.22;5072831;28;20112;-90
2021/03/13 04:19:15;;;;;;;26.15;16.05;;;;;;;-1.43;81.44;95510.22;5056922;28;20107;-90
2021/03/13 04:21:41;;;;;;;26.27;18.08;;;;;;;-1.43;81.44;95510.22;5056136;28;20409;-90
2021/03/13 04:24:09;;;;;;;30.40;19.27;;;;;;;-1.61;82.64;95511.16;5056034;28;20032;-90
2021/03/13 04:26:36;;;;;;;26.15;18.55;;;;;;;-1.61;82.64;95511.16;5056024;28;20039;-90
2021/03/13 04:29:02;;;;;;;38.13;22.58;;;;;;;-1.61;82.64;95511.16;5072700;28;20033;-89
2021/03/13 04:31:30;;;;;;;29.67;18.83;;;;;;;-1.61;82.64;95511.16;5057007;28;20047;-90
2021/03/13 04:33:57;;;;;;;29.40;19.25;;;;;;;-1.61;82.64;95511.16;5055837;28;20021;-90
2021/03/13 04:36:25;;;;;;;25.52;16.42;;;;;;;-1.34;83.55;95567.16;5074808;28;20443;-90
2021/03/13 04:38:54;;;;;;;23.83;15.98;;;;;;;-1.44;83.81;95551.31;5060210;28;20032;-90
2021/03/13 04:41:20;;;;;;;22.63;14.25;;;;;;;-1.25;83.12;95579.28;5076883;28;20032;-90
2021/03/13 04:43:46;;;;;;;23.75;14.70;;;;;;;-1.68;83.47;95511.25;5076910;28;20021;-90
2021/03/13 04:46:12;;;;;;;25.73;16.23;;;;;;;-1.65;85.40;95499.03;5079836;28;20393;-89
2021/03/13 04:48:38;;;;;;;23.52;15.90;;;;;;;-1.46;84.85;95505.66;5080058;28;20064;-90
2021/03/13 04:51:05;;;;;;;23.63;14.80;;;;;;;-1.49;83.88;95522.44;5079757;28;20044;-90
2021/03/13 04:53:31;;;;;;;23.67;15.60;;;;;;;-1.59;82.98;95514.19;5079940;28;20035;-90
2021/03/13 04:56:11;;;;;;;22.17;14.48;;;;;;;-1.59;82.98;95514.19;5081392;28;20021;-90
2021/03/13 04:58:36;;;;;;;21.35;14.63;;;;;;;-1.50;83.94;95518.28;5079870;28;20333;-90
2021/03/13 05:01:02;;;;;;;20.88;14.75;;;;;;;-1.17;84.06;95552.16;5079759;28;20115;-90
2021/03/13 05:03:27;;;;;;;21.90;14.77;;;;;;;-1.33;84.06;95525.31;5079500;28;20058;-90
2021/03/13 05:05:53;;;;;;;24.75;15.93;;;;;;;-1.34;83.97;95524.53;5081036;28;20036;-90
2021/03/13 05:08:18;;;;;;;22.48;15.02;;;;;;;-1.15;83.29;95539.16;5079536;28;20035;-90
2021/03/13 05:10:43;;;;;;;21.50;14.07;;;;;;;-1.11;83.38;95557.78;5079494;28;20028;-90
2021/03/13 05:13:09;;;;;;;23.35;14.93;;;;;;;-1.20;83.27;95534.28;5079634;28;20016;-91
2021/03/13 05:15:34;;;;;;;24.25;15.27;;;;;;;-1.37;84.42;95500.63;5079759;28;20028;-90
2021/03/13 05:18:00;;;;;;;25.52;15.95;;;;;;;-0.92;83.55;95540.38;5079644;28;20481;-91
2021/03/13 05:20:25;;;;;;;29.73;16.52;;;;;;;-1.34;82.96;95497.91;5079308;28;20024;-90
2021/03/13 05:22:51;;;;;;;27.98;17.30;;;;;;;-1.28;83.74;95492.13;5079579;28;20028;-91
2021/03/13 05:25:18;;;;;;;23.88;17.00;;;;;;;-1.18;83.49;95501.88;5079375;28;20039;-92
2021/03/13 05:27:44;;;;;;;26.17;16.77;;;;;;;-1.18;83.49;95501.88;5079327;28;20359;-90
2021/03/13 05:30:12;;;;;;;27.48;16.23;;;;;;;-0.86;83.66;95544.88;5079250;28;20024;-91
2021/03/13 05:32:38;;;;;;;23.88;15.63;;;;;;;-0.86;83.66;95544.88;5079226;28;20360;-90
2021/03/13 05:35:11;;;;;;;25.33;15.85;;;;;;;-0.94;83.52;95545.38;5079146;28;20024;-89
2021/03/13 05:37:39;;;;;;;26.00;16.17;;;;;;;-1.16;83.98;95504.94;5078988;28;20056;-90
2021/03/13 05:40:06;;;;;;;34.05;21.52;;;;;;;-1.26;83.92;95476.50;5078974;28;20024;-90
2021/03/13 05:42:32;;;;;;;49.17;29.10;;;;;;;-0.85;83.23;95543.72;5078882;28;20035;-90
2021/03/13 05:44:58;;;;;;;41.00;24.65;;;;;;;-0.85;83.23;95543.72;5078834;28;20017;-90
2021/03/13 05:47:25;;;;;;;38.03;22.70;;;;;;;-1.49;82.94;95455.84;5078681;28;20031;-90
2021/03/13 05:50:15;;;;;;;35.45;22.48;;;;;;;-1.49;82.94;95455.84;5078797;28;20021;-90
2021/03/13 05:52:45;;;;;;;38.97;23.50;;;;;;;-1.49;82.94;95455.84;5074318;28;20056;-90
2021/03/13 05:55:11;;;;;;;36.33;24.05;;;;;;;-1.01;83.60;95492.91;5079069;28;20135;-90
2021/03/13 05:57:37;;;;;;;33.25;22.83;;;;;;;-1.11;82.90;95472.50;5078837;28;20430;-90
2021/03/13 06:00:05;;;;;;;33.22;21.08;;;;;;;-1.11;82.90;95472.50;5078772;28;20350;-90
2021/03/13 06:02:32;;;;;;;30.13;19.00;;;;;;;-1.11;82.90;95472.50;5080305;28;20036;-91
2021/03/13 06:04:59;;;;;;;33.17;20.10;;;;;;;-1.11;82.90;95472.50;5081004;28;20028;-90
2021/03/13 06:07:26;;;;;;;28.85;19.92;;;;;;;-0.64;82.79;95537.34;5095990;28;20098;-90
2021/03/13 06:09:53;;;;;;;35.15;21.80;;;;;;;-0.66;83.26;95534.31;5079552;28;20021;-90
2021/03/13 06:12:19;;;;;;;35.88;21.02;;;;;;;-0.77;82.79;95512.38;5078672;28;20028;-89
2021/03/13 06:14:52;;;;;;;31.05;19.98;;;;;;;-0.67;100.00;68426.72;5078515;28;20024;-91
2021/03/13 06:17:19;;;;;;;30.63;19.60;;;;;;;-0.98;82.83;95478.75;5079616;28;20474;-92
2021/03/13 06:19:55;;;;;;;35.88;21.92;;;;;;;-0.99;83.04;95468.50;5079333;28;20293;-92
2021/03/13 06:22:37;;;;;;;32.67;21.42;;;;;;;-0.38;83.11;95548.38;5077876;28;20029;-92
2021/03/13 06:25:18;;;;;;;34.30;22.13;;;;;;;-0.24;83.36;95547.41;5077951;28;20112;-92
2021/03/13 06:27:50;;;;;;;32.65;21.67;;;;;;;-0.54;83.51;95468.94;5078029;28;20040;-92
2021/03/13 06:30:21;;;;;;;30.73;20.00;;;;;;;-0.07;81.76;95536.41;5075743;28;20078;-92
2021/03/13 06:32:54;;;;;;;28.42;19.08;;;;;;;0.05;82.07;95548.44;5081823;28;20111;-93
2021/03/13 06:35:34;;;;;;;27.90;17.50;;;;;;;0.05;82.07;95548.44;5081684;28;20028;-93
2021/03/13 06:38:16;;;;;;;29.20;19.17;;;;;;;0.05;82.07;95548.44;5076988;28;20142;-92
2021/03/13 06:40:42;;;;;;;23.75;15.98;;;;;;;0.05;82.07;95548.44;5058961;28;20123;-92
2021/03/13 06:43:19;;;;;;;25.92;16.90;;;;;;;0.05;82.07;95548.44;5057973;28;20036;-94
2021/03/13 06:46:40;;;;;;;24.20;16.13;;;;;;;0.05;82.07;95548.44;5058195;28;20025;-91
2021/03/13 06:49:10;;;;;;;24.95;17.60;;;;;;;0.05;82.07;95548.44;5064623;28;20024;-91
2021/03/13 06:51:37;;;;;;;31.92;22.02;;;;;;;0.05;82.07;95548.44;5079606;28;20444;-90
2021/03/13 06:54:17;;;;;;;26.70;17.90;;;;;;;0.05;82.07;95548.44;5078030;28;20375;-90
2021/03/13 06:56:50;;;;;;;29.45;18.75;;;;;;;0.05;82.07;95548.44;5081656;28;20020;-89
2021/03/13 06:59:35;;;;;;;40.20;20.52;;;;;;;0.05;82.07;95548.44;5079711;28;20029;-91
2021/03/13 07:02:02;;;;;;;29.10;19.35;;;;;;;-145.61;100.00;68426.72;5076202;28;20031;-90
2021/03/13 07:04:30;;;;;;;28.42;19.25;;;;;;;0.05;82.07;95548.44;5060197;28;20020;-90
2021/03/13 07:06:56;;;;;;;27.50;18.77;;;;;;;0.05;82.07;95548.44;5077562;28;20094;-90
2021/03/13 07:09:48;;;;;;;31.75;22.05;;;;;;;0.05;82.07;95548.44;5077127;28;20123;-92
2021/03/13 07:12:52;;;;;;;33.22;22.33;;;;;;;1.05;79.32;95592.00;5077000;28;20028;-89
2021/03/13 07:15:27;;;;;;;36.33;24.13;;;;;;;1.05;79.32;95592.00;4978825;28;20443;-91
2021/03/13 07:18:00;;;;;;;38.97;25.27;;;;;;;1.05;79.32;95592.00;4981031;28;20023;-92
2021/03/13 07:20:28;;;;;;;39.75;25.40;;;;;;;1.05;79.32;95592.00;5015794;28;20043;-92
2021/03/13 07:22:56;;;;;;;39.28;24.95;;;;;;;1.05;79.32;95592.00;5068881;28;20047;-92
2021/03/13 07:25:24;;;;;;;35.78;25.08;;;;;;;1.31;80.14;95603.69;5077133;28;20031;-91
2021/03/13 07:27:55;;;;;;;36.00;24.35;;;;;;;1.31;80.14;95603.69;5077037;28;20029;-91
2021/03/13 07:30:21;;;;;;;37.83;24.35;;;;;;;1.31;80.14;95603.69;5076911;28;20025;-91
2021/03/13 07:32:51;;;;;;;73.35;38.80;;;;;;;1.31;80.14;95603.69;5077477;28;20407;-89
2021/03/13 07:35:21;;;;;;;33.50;22.35;;;;;;;1.31;80.14;95603.69;5076539;28;20017;-89
2021/03/13 07:37:55;;;;;;;27.15;17.52;;;;;;;1.31;80.14;95603.69;5076552;28;20024;-88
2021/03/13 07:40:22;;;;;;;22.35;15.77;;;;;;;1.31;80.14;95603.69;5074629;28;20035;-89
2021/03/13 07:42:48;;;;;;;17.70;12.40;;;;;;;1.31;80.14;95603.69;5076529;28;20029;-89
2021/03/13 07:45:14;;;;;;;16.67;11.50;;;;;;;-145.61;80.14;75458.22;5076471;28;20033;-88
2021/03/13 07:47:42;;;;;;;18.95;12.75;;;;;;;1.31;80.14;95603.69;5075633;28;20060;-89
2021/03/13 07:50:13;;;;;;;16.27;11.65;;;;;;;1.31;80.14;95603.69;5076500;28;20115;-89
2021/03/13 07:52:40;;;;;;;16.48;11.88;;;;;;;1.31;80.14;95603.69;5076379;28;20973;-89
2021/03/13 07:55:12;;;;;;;17.13;11.98;;;;;;;1.31;80.14;95603.69;5077438;28;20016;-91
2021/03/13 07:57:38;;;;;;;18.45;11.63;;;;;;;1.31;80.14;95603.69;5076334;28;20360;-90
2021/03/13 08:00:05;;;;;;;20.02;12.30;;;;;;;1.31;80.14;95603.69;5076512;28;20066;-90
2021/03/13 08:02:31;;;;;;;16.60;12.18;;;;;;;1.31;80.14;95603.69;5075418;28;20040;-89
2021/03/13 08:04:56;;;;;;;19.73;13.10;;;;;;;1.31;80.14;95603.69;5076048;28;20025;-88
2021/03/13 08:07:25;;;;;;;18.27;13.02;;;;;;;1.31;80.14;95603.69;5077294;28;20020;-88
2021/03/13 08:09:51;;;;;;;25.02;17.77;;;;;;;2.08;76.30;95540.75;5074241;28;20021;-89
2021/03/13 08:12:41;;;;;;;30.35;20.73;;;;;;;2.08;76.30;95540.75;5071019;28;20021;-92
2021/03/13 08:18:41;;;;;;;29.30;19.10;;;;;;;2.08;76.30;95540.75;5072596;28;20043;-92
2021/03/13 08:21:19;;;;;;;27.25;19.80;;;;;;;2.08;76.30;95540.75;5073936;28;20028;-88
2021/03/13 08:23:51;;;;;;;26.45;19.20;;;;;;;2.88;76.01;95589.97;5072321;28;20029;-89
2021/03/13 08:26:39;;;;;;;26.80;19.38;;;;;;;3.02;76.69;95588.78;5071193;28;20025;-89
2021/03/13 08:29:06;;;;;;;24.13;16.30;;;;;;;3.02;76.69;95588.78;5065424;28;20040;-90
2021/03/13 08:31:33;;;;;;;22.33;15.07;;;;;;;3.02;76.69;95588.78;5071531;28;20408;-93
2021/03/13 08:34:19;;;;;;;23.33;15.55;;;;;;;3.02;76.69;95588.78;5076359;28;20024;-93
2021/03/13 08:36:49;;;;;;;22.50;15.95;;;;;;;2.52;100.00;68426.72;5065717;28;20028;-91
2021/03/13 08:39:18;;;;;;;25.92;16.30;;;;;;;2.52;76.02;95488.28;5075652;28;20031;-92
2021/03/13 08:41:43;;;;;;;23.25;15.48;;;;;;;2.52;76.02;95488.28;5075351;28;20063;-91
2021/03/13 08:44:19;;;;;;;24.05;15.68;;;;;;;2.52;76.02;95488.28;5076074;28;20409;-89
2021/03/13 08:47:00;;;;;;;23.42;15.18;;;;;;;3.04;74.40;95538.16;5083792;28;20032;-91
2021/03/13 08:49:28;;;;;;;;;;;;;;;3.04;74.40;95538.16;5074524;28;20020;-92
2021/03/13 08:52:09;;;;;;;25.70;15.80;;;;;;;3.60;74.98;95577.16;5075046;28;19962;-91
2021/03/13 08:54:40;;;;;;;24.38;17.75;;;;;;;3.69;73.97;95579.97;5088239;28;20039;-89
2021/03/13 08:57:09;;;;;;;33.17;21.15;;;;;;;3.69;73.97;95579.97;5075316;28;20021;-90
2021/03/13 08:59:35;;;;;;;28.60;20.02;;;;;;;3.82;74.58;95572.63;5075806;28;20029;-89
2021/03/13 09:02:11;;;;;;;27.10;19.20;;;;;;;3.58;74.19;95499.72;5085850;28;20028;-88
2021/03/13 09:04:38;;;;;;;24.88;17.95;;;;;;;3.59;73.34;95516.59;5076871;28;20381;-90
2021/03/13 09:07:05;;;;;;;27.90;17.90;;;;;;;4.00;72.27;95566.72;5075059;28;20438;-90
2021/03/13 09:09:34;;;;;;;25.17;17.00;;;;;;;4.13;72.81;95580.88;5075990;28;20044;-91
2021/03/13 09:12:10;;;;;;;24.25;15.80;;;;;;;3.80;72.67;95505.16;5075738;28;20477;-91
2021/03/13 09:14:45;;;;;;;24.77;15.88;;;;;;;4.49;72.42;95577.00;5075289;28;20089;-89
2021/03/13 09:17:12;;;;;;;28.88;19.80;;;;;;;4.25;72.59;95520.19;5074850;28;20024;-92
2021/03/13 09:19:38;;;;;;;22.70;14.82;;;;;;;4.42;72.14;95542.28;5074520;28;20028;-92
2021/03/13 09:22:13;;;;;;;21.70;14.90;;;;;;;4.25;71.29;95490.63;5077172;28;20075;-91
2021/03/13 09:24:38;;;;;;;19.52;14.80;;;;;;;4.67;71.39;95519.91;5079252;28;20111;-92
2021/03/13 09:27:05;;;;;;;21.60;14.35;;;;;;;4.81;70.96;95521.34;5080030;28;20476;-92
2021/03/13 09:29:42;;;;;;;19.77;12.23;;;;;;;4.79;68.59;95491.41;5081250;28;20035;-92
2021/03/13 09:32:12;;;;;;;27.70;16.30;;;;;;;5.06;70.54;95507.75;5080017;28;20293;-92
2021/03/13 09:34:46;;;;;;;26.08;16.73;;;;;;;5.21;69.89;95508.69;5081597;28;20020;-92
2021/03/13 09:37:20;;;;;;;24.90;15.35;;;;;;;5.26;70.45;95502.72;5079963;28;20025;-91
2021/03/13 09:39:48;;;;;;;27.30;15.70;;;;;;;5.42;70.38;95509.81;5079567;28;20066;-90
2021/03/13 09:42:24;;;;;;;5.82;3.47;;;;;;;5.69;66.01;95544.19;5080301;28;20070;-92
2021/03/13 09:45:00;;;;;;;2.78;2.03;;;;;;;5.49;64.91;95485.31;5078899;28;20039;-90
2021/03/13 09:47:35;;;;;;;6.68;2.92;;;;;;;5.96;65.66;95524.66;5078813;28;20035;-88
2021/03/13 09:50:05;;;;;;;3.33;2.08;;;;;;;6.31;64.99;95537.91;5078664;28;20032;-90
2021/03/13 09:52:37;;;;;;;3.92;2.33;;;;;;;6.50;64.20;95546.75;5080227;28;20040;-91
2021/03/13 09:55:08;;;;;;;3.90;2.28;;;;;;;6.54;64.63;95558.88;5081357;28;20372;-91
2021/03/13 09:57:35;;;;;;;3.47;2.13;;;;;;;6.54;66.03;95555.44;5079097;28;20075;-92
2021/03/13 10:00:07;;;;;;;4.85;3.05;;;;;;;6.56;66.33;95539.56;5079813;28;20039;-92
2021/03/13 10:02:33;;;;;;;3.88;2.65;;;;;;;6.74;66.54;95546.88;5072808;28;20082;-93
2021/03/13 10:04:59;;;;;;;4.40;2.97;;;;;;;6.46;65.13;95492.19;5081346;28;20028;-93
2021/03/13 10:07:25;;;;;;;4.03;2.88;;;;;;;6.77;66.04;95508.22;5082893;28;20024;-92
2021/03/13 10:09:58;;;;;;;4.45;2.55;;;;;;;6.65;65.37;95463.97;5098251;28;20024;-94
2021/03/13 10:12:32;;;;;;;3.42;2.70;;;;;;;6.79;64.06;95487.66;5084090;28;20047;-93
2021/03/13 10:15:31;;;;;;;3.67;2.88;;;;;;;7.05;63.66;95511.59;5089128;28;20028;-91
2021/03/13 10:17:56;;;;;;;3.33;2.60;;;;;;;7.06;62.79;95526.59;5020607;28;20037;-95
2021/03/13 10:20:24;;;;;;;3.72;2.97;;;;;;;6.74;64.39;95479.41;5086734;28;20376;-93
2021/03/13 10:22:50;;;;;;;3.95;2.30;;;;;;;6.82;62.41;95480.63;5081926;28;20024;-93
2021/03/13 10:25:16;;;;;;;3.85;2.58;;;;;;;6.92;62.36;95473.22;5081056;28;20024;-93
2021/03/13 10:27:42;;;;;;;5.05;2.85;;;;;;;6.98;61.78;95476.81;5080227;28;20035;-92
2021/03/13 10:30:09;;;;;;;6.15;2.70;;;;;;;7.30;62.64;95527.44;5079058;28;20020;-91
2021/03/13 10:32:37;;;;;;;3.60;2.50;;;;;;;6.86;61.66;95480.44;5078038;28;20020;-94
2021/03/13 10:35:07;;;;;;;3.47;2.20;;;;;;;7.32;60.66;95508.81;5081611;28;20017;-93
2021/03/13 10:37:44;;;;;;;3.43;2.30;;;;;;;7.42;59.37;95520.31;5089107;28;20073;-90
2021/03/13 10:40:27;;;;;;;3.50;2.60;;;;;;;7.36;59.32;95487.03;5090096;28;20024;-91
2021/03/13 10:43:07;;;;;;;5.35;2.50;;;;;;;7.17;59.45;95445.09;5078390;28;20416;-90
2021/03/13 10:45:33;;;;;;;3.67;2.28;;;;;;;7.12;59.35;95443.75;5077184;28;20024;-90
2021/03/13 10:48:05;;;;;;;3.42;2.20;;;;;;;7.21;58.11;95462.63;5077708;28;20028;-91
2021/03/13 10:50:30;;;;;;;3.80;2.30;;;;;;;7.53;58.93;95498.97;5077673;28;20028;-91
2021/03/13 10:52:56;;;;;;;3.20;2.20;;;;;;;7.27;59.34;95470.84;5077333;28;20110;-89
2021/03/13 10:55:37;;;;;;;3.60;2.53;;;;;;;7.05;60.27;95441.38;5077766;28;20024;-91
2021/03/13 10:58:02;;;;;;;4.75;3.03;;;;;;;7.48;60.97;95486.06;5077293;28;20415;-91
2021/03/13 11:00:28;;;;;;;5.07;3.15;;;;;;;7.21;59.86;95438.31;5075687;28;20024;-92
2021/03/13 11:02:53;;;;;;;3.75;2.45;;;;;;;7.34;58.90;95432.69;5078274;28;20036;-93
2021/03/13 11:05:19;;;;;;;3.42;2.20;;;;;;;7.38;57.82;95425.19;5078343;28;20024;-92
2021/03/13 11:07:44;;;;;;;5.32;2.45;;;;;;;7.30;59.39;95402.44;5077319;28;20028;-89
2021/03/13 11:10:10;;;;;;;3.20;2.05;;;;;;;7.56;56.89;95448.66;5067094;28;20021;-90
2021/03/13 11:12:36;;;;;;;3.50;2.30;;;;;;;7.31;56.13;95395.81;5059894;28;20064;-89
2021/03/13 11:15:01;;;;;;;4.80;2.40;;;;;;;7.42;56.68;95411.50;5062287;28;20017;-92
2021/03/13 11:17:27;;;;;;;3.63;2.17;;;;;;;7.33;56.21;95374.47;5092215;28;20082;-92
2021/03/13 11:19:52;;;;;;;23.55;12.13;;;;;;;7.71;56.25;95387.28;5098726;28;20024;-91
2021/03/13 11:22:17;;;;;;;13.80;5.93;;;;;;;8.55;53.98;95453.06;5094326;28;20416;-91
2021/03/13 11:24:43;;;;;;;3.90;1.85;;;;;;;8.44;52.51;95410.31;5077524;28;20439;-90
2021/03/13 11:27:08;;;;;;;6.40;1.98;;;;;;;8.45;52.85;95406.41;5077508;28;20115;-88
2021/03/13 11:29:34;;;;;;;5.75;2.15;;;;;;;8.52;52.65;95395.22;5080649;28;20059;-88
2021/03/13 11:32:00;;;;;;;4.60;2.00;;;;;;;8.75;51.94;95392.88;5081353;28;20088;-89
2021/03/13 11:34:25;;;;;;;3.30;1.65;;;;;;;8.90;52.28;95386.22;5080275;28;20116;-88
2021/03/13 11:36:51;;;;;;;5.70;2.20;;;;;;;8.95;52.23;95373.22;5079876;28;20032;-86
2021/03/13 11:39:16;;;;;;;3.03;2.28;;;;;;;8.89;51.18;95352.25;5079851;28;20079;-91